Time,TemperatureF,DewpointF,PressureIn,WindDirection,WindDirectionDegrees,WindSpeedMPH,WindSpeedGustMPH,Humidity,HourlyPrecipIn,Conditions,Clouds,dailyrainin,SoftwareType,DateUTC
2016-02-08 00:04:00,33.0,27.0,-100.00,WSW,255,3.0,6.0,80,-99.99,,,-99.99,,2016-02-08 06:04:00,
2016-02-08 00:13:00,32.0,27.0,-100.00,SW,235,2.0,5.0,81,-99.99,,,-99.99,,2016-02-08 06:13:00,
2016-02-08 00:33:00,32.0,27.0,-100.00,SW,235,3.0,6.0,82,-99.99,,,-99.99,,2016-02-08 06:33:00,
2016-02-08 00:44:00,32.0,28.0,-100.00,WSW,250,4.0,9.0,83,-99.99,,,-99.99,,2016-02-08 06:44:00,
2016-02-08 00:54:00,32.0,28.0,-100.00,SSE,165,1.0,5.0,83,-99.99,,,-99.99,,2016-02-08 06:54:00,
2016-02-08 01:03:00,32.0,28.0,-100.00,SSE,165,1.0,5.0,83,-99.99,,,-99.99,,2016-02-08 07:03:00,
2016-02-08 01:13:00,32.0,28.0,-100.00,SW,215,4.0,8.0,84,-99.99,,,-99.99,,2016-02-08 07:13:00,
2016-02-08 01:34:00,32.0,28.0,-100.00,SW,230,3.0,7.0,84,-99.99,,,-99.99,,2016-02-08 07:34:00,
2016-02-08 01:44:00,32.0,27.0,-100.00,WSW,245,3.0,6.0,84,-99.99,,,-99.99,,2016-02-08 07:44:00,
2016-02-08 01:53:00,31.0,27.0,-100.00,WSW,250,3.0,7.0,85,-99.99,,,-99.99,,2016-02-08 07:53:00,
2016-02-08 02:03:00,31.0,27.0,-100.00,WSW,250,3.0,7.0,85,-99.99,,,-99.99,,2016-02-08 08:03:00,
2016-02-08 02:13:00,32.0,28.0,-100.00,West,260,4.0,8.0,86,-99.99,,,-99.99,,2016-02-08 08:13:00,
2016-02-08 02:36:00,33.0,29.0,-100.00,WSW,240,3.0,7.0,86,-99.99,,,-99.99,,2016-02-08 08:36:00,
2016-02-08 02:44:00,33.0,30.0,-100.00,SW,230,4.0,9.0,87,-99.99,,,-99.99,,2016-02-08 08:44:00,
2016-02-08 02:53:00,33.0,30.0,-100.00,WSW,250,4.0,8.0,87,-99.99,,,-99.99,,2016-02-08 08:53:00,
2016-02-08 03:13:00,33.0,30.0,-100.00,West,265,6.0,11.0,87,-99.99,,,-99.99,,2016-02-08 09:13:00,
2016-02-08 03:34:00,34.0,31.0,-100.00,WSW,245,4.0,11.0,88,-99.99,,,-99.99,,2016-02-08 09:34:00,
2016-02-08 03:44:00,34.0,31.0,-100.00,West,260,7.0,12.0,88,-99.99,,,-99.99,,2016-02-08 09:44:00,
2016-02-08 03:53:00,34.0,31.0,-100.00,WSW,240,4.0,10.0,88,-99.99,,,-99.99,,2016-02-08 09:53:00,
2016-02-08 04:03:00,34.0,31.0,-100.00,WSW,240,4.0,10.0,88,-99.99,,,-99.99,,2016-02-08 10:03:00,
2016-02-08 04:13:00,34.0,31.0,-100.00,West,280,6.0,9.0,89,-99.99,,,-99.99,,2016-02-08 10:13:00,